createdAt,value
2017-10-17T00:01:40.643Z,92.90
2017-10-17T00:04:08.794Z,92.90
2017-10-17T00:06:36.978Z,92.90
2017-10-17T00:09:05.142Z,92.80
2017-10-17T00:11:33.316Z,92.80
2017-10-17T00:14:01.596Z,92.90
2017-10-17T00:16:29.971Z,92.90
2017-10-17T00:18:58.145Z,93.10
2017-10-17T00:21:26.319Z,92.90
2017-10-17T00:23:54.473Z,92.80
2017-10-17T00:26:22.692Z,92.80
2017-10-17T00:28:50.846Z,92.80
2017-10-17T00:31:19.003Z,92.80
2017-10-17T00:33:47.176Z,92.70
2017-10-17T00:39:10.950Z,92.60
2017-10-17T00:41:39.094Z,92.60
2017-10-17T00:44:08.023Z,92.60
2017-10-17T00:46:36.179Z,92.60
2017-10-17T00:49:07.135Z,92.50
2017-10-17T00:51:35.308Z,92.60
2017-10-17T00:54:03.478Z,92.60
2017-10-17T00:56:31.632Z,92.60
2017-10-17T00:58:59.823Z,92.60
2017-10-17T01:01:27.981Z,92.50
2017-10-17T01:03:56.143Z,92.50
2017-10-17T01:06:24.291Z,92.40
2017-10-17T01:08:53.218Z,92.40
2017-10-17T01:11:21.374Z,92.40
2017-10-17T01:13:50.404Z,92.50
2017-10-17T01:16:18.558Z,92.50
2017-10-17T01:18:46.707Z,92.60
2017-10-17T01:21:18.503Z,92.60
2017-10-17T01:23:52.155Z,92.60
2017-10-17T01:26:21.874Z,92.70
2017-10-17T01:29:07.543Z,92.60
2017-10-17T01:31:35.712Z,92.60
2017-10-17T01:34:03.943Z,92.60
2017-10-17T01:36:32.112Z,92.90
2017-10-17T01:39:02.438Z,92.50
2017-10-17T01:41:30.611Z,92.50
2017-10-17T01:46:55.222Z,92.80
2017-10-17T01:49:24.062Z,92.80
2017-10-17T01:52:07.175Z,92.80
2017-10-17T01:57:50.720Z,92.70
2017-10-17T02:00:18.866Z,92.70
2017-10-17T02:02:47.036Z,92.60
2017-10-17T02:05:15.187Z,92.50
2017-10-17T02:07:45.522Z,92.70
2017-10-17T02:10:22.422Z,92.30
2017-10-17T02:12:50.592Z,92.20
2017-10-17T02:15:18.855Z,92.20
2017-10-17T02:21:15.238Z,92.20
2017-10-17T02:23:43.403Z,92.20
2017-10-17T02:26:14.210Z,92.30
2017-10-17T02:28:49.986Z,92.30
2017-10-17T02:31:20.654Z,92.20
2017-10-17T02:33:54.486Z,92.30
2017-10-17T02:36:22.952Z,92.20
2017-10-17T02:38:51.106Z,92.30
2017-10-17T02:41:20.045Z,92.30
2017-10-17T02:43:53.551Z,92.30
2017-10-17T02:46:21.710Z,92.30
2017-10-17T02:52:01.655Z,92.30
2017-10-17T02:54:29.850Z,92.60
2017-10-17T02:56:58.026Z,92.70
2017-10-17T02:59:31.024Z,92.70
2017-10-17T03:01:59.177Z,92.80
2017-10-17T03:04:39.474Z,92.70
2017-10-17T03:07:07.626Z,92.70
2017-10-17T03:09:35.879Z,92.70
2017-10-17T03:12:04.041Z,92.60
2017-10-17T03:14:34.883Z,92.90
2017-10-17T03:17:03.558Z,92.70
2017-10-17T03:19:31.734Z,92.80
2017-10-17T03:22:12.458Z,92.70
2017-10-17T03:27:37.833Z,92.60
2017-10-17T03:30:06.002Z,92.70
2017-10-17T03:32:34.154Z,92.70
2017-10-17T03:35:14.427Z,92.60
2017-10-17T03:38:13.943Z,92.60
2017-10-17T03:40:58.706Z,92.60
2017-10-17T03:43:38.179Z,92.80
2017-10-17T03:46:07.168Z,93.00
2017-10-17T03:48:35.314Z,93.00
2017-10-17T03:51:13.374Z,93.00
2017-10-17T03:53:51.224Z,93.20
2017-10-17T03:56:24.905Z,93.10
2017-10-17T03:58:54.960Z,93.10
2017-10-17T04:01:27.624Z,93.20
2017-10-17T04:04:10.649Z,93.30
2017-10-17T04:06:45.129Z,93.30
2017-10-17T04:09:13.289Z,93.30
2017-10-17T04:11:42.238Z,93.60
2017-10-17T04:14:41.981Z,93.60
2017-10-17T04:17:12.286Z,93.50
2017-10-17T04:19:56.225Z,93.40
2017-10-17T04:22:33.687Z,93.30
2017-10-17T04:25:16.659Z,93.30
2017-10-17T04:28:03.379Z,93.30
2017-10-17T04:30:33.237Z,93.50
2017-10-17T04:33:12.029Z,93.10
2017-10-17T04:35:46.859Z,93.00
2017-10-17T04:38:15.036Z,92.90
2017-10-17T04:40:49.459Z,92.90
2017-10-17T04:43:33.372Z,92.90
2017-10-17T04:46:19.826Z,92.80
2017-10-17T04:49:07.483Z,92.80
2017-10-17T04:51:57.235Z,92.90
2017-10-17T04:57:24.154Z,92.80
2017-10-17T04:59:53.596Z,92.80
2017-10-17T05:02:26.980Z,92.80
2017-10-17T05:05:01.359Z,92.90
2017-10-17T05:07:47.506Z,92.90
2017-10-17T05:10:19.854Z,92.90
2017-10-17T05:12:53.206Z,92.80
2017-10-17T05:15:22.148Z,93.10
2017-10-17T05:18:01.904Z,92.90
2017-10-17T05:20:34.944Z,92.80
2017-10-17T05:25:59.908Z,92.80
2017-10-17T05:28:39.779Z,92.90
2017-10-17T05:31:23.607Z,92.90
2017-10-17T05:34:25.822Z,92.90
2017-10-17T05:40:16.980Z,92.80
2017-10-17T05:42:45.131Z,92.80
2017-10-17T05:45:23.988Z,92.90
2017-10-17T05:47:53.914Z,92.90
2017-10-17T05:50:34.638Z,92.80
2017-10-17T05:53:02.788Z,92.80
2017-10-17T05:55:31.844Z,92.90
2017-10-17T05:58:00.389Z,92.90
2017-10-17T06:00:28.587Z,92.80
2017-10-17T06:02:56.746Z,92.80
2017-10-17T06:05:25.446Z,92.80
2017-10-17T06:07:53.886Z,92.90
2017-10-17T06:10:22.799Z,92.90
2017-10-17T06:12:50.997Z,92.90
2017-10-17T06:15:19.963Z,92.90
2017-10-17T06:17:48.135Z,92.80
2017-10-17T06:20:16.386Z,92.60
2017-10-17T06:22:45.326Z,92.50
2017-10-17T06:25:13.478Z,92.60
2017-10-17T06:27:42.071Z,92.30
2017-10-17T06:30:10.226Z,92.20
2017-10-17T06:32:38.408Z,92.00
2017-10-17T06:35:06.669Z,92.10
2017-10-17T06:37:34.895Z,92.10
2017-10-17T06:40:03.069Z,92.10
2017-10-17T06:42:31.241Z,92.00
2017-10-17T06:44:59.418Z,92.00
2017-10-17T06:47:27.581Z,91.90
2017-10-17T06:49:55.761Z,91.50
2017-10-17T06:52:23.944Z,91.70
2017-10-17T06:54:52.233Z,91.70
2017-10-17T06:57:21.152Z,91.40
2017-10-17T06:59:49.329Z,91.40
2017-10-17T07:02:17.495Z,91.30
2017-10-17T07:04:45.666Z,91.30
2017-10-17T07:07:13.805Z,91.30
2017-10-17T07:09:41.958Z,91.10
2017-10-17T07:12:10.188Z,90.80
2017-10-17T07:14:38.352Z,91.20
2017-10-17T07:17:06.518Z,91.10
2017-10-17T07:19:35.451Z,90.70
2017-10-17T07:22:03.616Z,90.70
2017-10-17T07:24:31.772Z,90.40
2017-10-17T07:26:59.935Z,90.20
2017-10-17T07:29:28.083Z,90.20
2017-10-17T07:31:56.298Z,90.30
2017-10-17T07:34:24.434Z,90.10
2017-10-17T07:36:53.755Z,90.30
2017-10-17T07:39:21.913Z,90.10
2017-10-17T07:41:50.090Z,89.80
2017-10-17T07:44:18.239Z,89.90
2017-10-17T07:46:47.158Z,89.10
2017-10-17T07:49:15.313Z,89.10
2017-10-17T07:51:43.474Z,88.70
2017-10-17T07:54:12.391Z,88.50
2017-10-17T07:56:40.565Z,88.40
2017-10-17T07:59:08.776Z,88.00
2017-10-17T08:01:36.965Z,87.80
2017-10-17T08:04:05.884Z,87.10
2017-10-17T08:06:34.025Z,87.20
2017-10-17T08:09:02.194Z,86.40
2017-10-17T08:11:30.847Z,85.60
2017-10-17T08:13:59.026Z,85.50
2017-10-17T08:16:27.191Z,85.50
2017-10-17T08:18:56.186Z,85.30
2017-10-17T08:21:24.331Z,84.80
2017-10-17T08:23:52.500Z,83.70
2017-10-17T08:26:20.642Z,83.80
2017-10-17T08:28:49.582Z,83.20
2017-10-17T08:31:17.730Z,83.10
2017-10-17T08:33:45.900Z,82.60
2017-10-17T08:36:14.051Z,82.70
2017-10-17T08:38:42.979Z,82.00
2017-10-17T08:41:11.134Z,82.00
2017-10-17T08:43:39.290Z,81.30
2017-10-17T08:46:08.239Z,80.30
2017-10-17T08:48:36.385Z,80.20
2017-10-17T08:51:04.550Z,80.70
2017-10-17T08:53:32.706Z,79.20
2017-10-17T08:56:02.038Z,77.90
2017-10-17T08:58:31.140Z,78.00
2017-10-17T09:01:00.050Z,77.80
2017-10-17T09:03:28.567Z,78.00
2017-10-17T09:05:57.507Z,75.70
2017-10-17T09:08:25.658Z,75.70
2017-10-17T09:10:53.815Z,74.60
2017-10-17T09:13:21.955Z,74.30
2017-10-17T09:15:50.941Z,73.20
2017-10-17T09:18:19.092Z,71.90
2017-10-17T09:20:47.354Z,72.50
2017-10-17T09:23:16.115Z,71.20
2017-10-17T09:25:44.268Z,70.80
2017-10-17T09:28:13.205Z,68.60
2017-10-17T09:30:41.378Z,68.70
2017-10-17T09:33:09.534Z,68.30
2017-10-17T09:35:37.670Z,67.80
2017-10-17T09:38:05.834Z,66.70
2017-10-17T09:40:33.975Z,67.00
2017-10-17T09:43:02.131Z,66.00
2017-10-17T09:45:30.937Z,64.50
2017-10-17T09:47:59.102Z,64.40
2017-10-17T09:50:27.251Z,63.60
2017-10-17T09:52:55.405Z,63.10
2017-10-17T09:55:24.326Z,62.20
2017-10-17T09:57:52.483Z,62.20
2017-10-17T10:00:20.622Z,60.00
2017-10-17T10:02:49.318Z,58.90
2017-10-17T10:05:18.257Z,57.30
2017-10-17T10:07:46.398Z,57.20
2017-10-17T10:10:14.565Z,57.10
2017-10-17T10:12:43.470Z,56.90
2017-10-17T10:15:11.644Z,56.90
2017-10-17T10:17:39.832Z,55.40
2017-10-17T10:20:08.002Z,54.10
2017-10-17T10:22:36.144Z,55.10
2017-10-17T10:25:05.067Z,53.50
2017-10-17T10:27:33.210Z,52.30
2017-10-17T10:30:02.138Z,50.40
2017-10-17T10:32:30.275Z,50.50
2017-10-17T10:34:59.308Z,50.20
2017-10-17T10:37:27.542Z,51.50
2017-10-17T10:39:56.467Z,49.50
2017-10-17T10:42:24.801Z,49.50
2017-10-17T10:44:53.732Z,49.60
2017-10-17T10:47:21.915Z,49.60
2017-10-17T10:49:50.054Z,48.30
2017-10-17T10:52:18.215Z,47.50
2017-10-17T10:54:47.117Z,45.90
2017-10-17T10:57:15.285Z,46.00
2017-10-17T10:59:43.445Z,45.10
2017-10-17T11:02:12.362Z,44.10
2017-10-17T11:04:40.499Z,44.10
2017-10-17T11:07:09.430Z,43.60
2017-10-17T11:09:37.580Z,42.50
2017-10-17T11:12:05.810Z,41.70
2017-10-17T11:14:33.965Z,42.10
2017-10-17T11:17:02.139Z,39.70
2017-10-17T11:19:30.404Z,37.60
2017-10-17T11:21:58.547Z,37.30
2017-10-17T11:24:26.719Z,36.70
2017-10-17T11:26:54.866Z,35.40
2017-10-17T11:29:23.656Z,34.80
2017-10-17T11:31:51.799Z,35.90
2017-10-17T11:34:19.964Z,35.90
2017-10-17T11:36:48.120Z,34.10
2017-10-17T11:39:16.293Z,32.80
2017-10-17T11:42:02.282Z,32.00
2017-10-17T11:44:30.447Z,33.60
2017-10-17T11:46:58.610Z,34.10
2017-10-17T11:49:26.771Z,32.60
2017-10-17T11:51:55.669Z,31.80
2017-10-17T11:54:23.845Z,30.60
2017-10-17T11:56:52.002Z,29.70
2017-10-17T11:59:20.930Z,30.10
2017-10-17T12:01:49.101Z,30.00
2017-10-17T12:04:17.258Z,30.20
2017-10-17T12:06:45.412Z,29.40
2017-10-17T12:09:13.569Z,28.60
2017-10-17T12:11:41.722Z,28.30
2017-10-17T12:14:09.870Z,29.00
2017-10-17T12:16:38.034Z,29.20
2017-10-17T12:19:06.179Z,28.60
2017-10-17T12:21:35.111Z,29.90
2017-10-17T12:24:03.260Z,29.90
2017-10-17T12:26:31.428Z,29.30
2017-10-17T12:28:59.570Z,29.50
2017-10-17T12:31:27.740Z,30.80
2017-10-17T12:33:55.939Z,31.30
2017-10-17T12:36:24.094Z,30.90
2017-10-17T12:38:53.001Z,30.20
2017-10-17T12:41:21.160Z,30.20
2017-10-17T12:43:50.118Z,27.60
2017-10-17T12:46:18.287Z,27.60
2017-10-17T12:48:46.625Z,28.00
2017-10-17T12:51:14.777Z,27.90
2017-10-17T12:53:43.738Z,29.10
2017-10-17T12:56:11.895Z,29.00
2017-10-17T12:58:40.061Z,27.90
2017-10-17T13:01:08.211Z,27.30
2017-10-17T13:03:36.432Z,26.20
2017-10-17T13:06:04.588Z,25.40
2017-10-17T13:08:32.759Z,24.60
2017-10-17T13:11:00.907Z,23.90
2017-10-17T13:13:29.072Z,22.00
2017-10-17T13:15:57.215Z,21.60
2017-10-17T13:18:26.156Z,20.50
2017-10-17T13:20:54.515Z,20.50
2017-10-17T13:23:22.672Z,21.00
2017-10-17T13:25:50.824Z,21.00
2017-10-17T13:28:19.767Z,21.00
2017-10-17T13:30:48.056Z,21.00
2017-10-17T13:33:16.252Z,20.40
2017-10-17T13:35:44.420Z,20.90
2017-10-17T13:38:12.622Z,21.50
2017-10-17T13:40:41.652Z,21.70
2017-10-17T13:43:09.823Z,21.60
2017-10-17T13:45:38.030Z,21.30
2017-10-17T13:48:06.166Z,23.40
2017-10-17T13:50:34.323Z,23.30
2017-10-17T13:53:02.475Z,23.80
2017-10-17T13:55:31.506Z,22.30
2017-10-17T13:57:59.650Z,22.00
2017-10-17T14:00:28.582Z,21.30
2017-10-17T14:02:56.748Z,21.20
2017-10-17T14:05:24.915Z,22.40
2017-10-17T14:07:53.066Z,21.70
2017-10-17T14:10:21.206Z,21.10
2017-10-17T14:12:49.380Z,22.50
2017-10-17T14:15:18.290Z,23.50
2017-10-17T14:17:47.319Z,23.00
2017-10-17T14:20:15.449Z,23.00
2017-10-17T14:22:44.379Z,23.60
2017-10-17T14:25:12.561Z,23.50
2017-10-17T14:27:40.740Z,24.80
2017-10-17T14:30:08.897Z,26.00
2017-10-17T14:32:37.880Z,25.90
2017-10-17T14:35:06.018Z,25.00
2017-10-17T14:37:35.056Z,25.50
2017-10-17T14:40:03.226Z,25.50
2017-10-17T14:42:31.406Z,26.70
2017-10-17T14:44:59.559Z,27.40
2017-10-17T14:47:27.707Z,27.20
2017-10-17T14:49:56.635Z,26.90
2017-10-17T14:52:24.778Z,26.90
2017-10-17T14:54:53.746Z,26.20
2017-10-17T14:57:21.891Z,26.40
2017-10-17T14:59:50.060Z,28.30
2017-10-17T15:02:18.220Z,28.10
2017-10-17T15:04:46.380Z,27.20
2017-10-17T15:07:14.771Z,26.90
2017-10-17T15:09:43.050Z,27.20
2017-10-17T15:12:11.191Z,27.20
2017-10-17T15:14:39.362Z,26.80
2017-10-17T15:17:07.509Z,27.00
2017-10-17T15:19:36.089Z,27.50
2017-10-17T15:22:05.005Z,28.30
2017-10-17T15:24:33.175Z,28.20
2017-10-17T15:27:01.319Z,28.80
2017-10-17T15:29:29.920Z,30.10
2017-10-17T15:31:59.548Z,31.60
2017-10-17T15:34:27.699Z,31.70
2017-10-17T15:36:56.644Z,33.10
2017-10-17T15:39:24.782Z,33.10
2017-10-17T15:41:52.942Z,34.20
2017-10-17T15:44:22.558Z,37.40
2017-10-17T15:46:50.728Z,37.40
2017-10-17T15:49:18.887Z,38.80
2017-10-17T15:51:47.932Z,40.90
2017-10-17T15:54:16.088Z,40.80
2017-10-17T15:56:44.261Z,43.50
2017-10-17T15:59:12.422Z,45.80
2017-10-17T16:01:40.582Z,47.50
2017-10-17T16:04:09.496Z,50.00
2017-10-17T16:06:37.672Z,50.00
2017-10-17T16:09:05.857Z,51.90
2017-10-17T16:11:34.124Z,52.50
2017-10-17T16:14:02.313Z,54.20
2017-10-17T16:16:30.470Z,55.30
2017-10-17T16:18:58.652Z,56.60
2017-10-17T16:21:26.828Z,57.70
2017-10-17T16:23:55.002Z,58.60
2017-10-17T16:26:23.220Z,60.10
2017-10-17T16:28:52.254Z,62.80
2017-10-17T16:31:20.399Z,62.70
2017-10-17T16:33:48.599Z,62.70
2017-10-17T16:36:16.740Z,64.30
2017-10-17T16:38:45.677Z,66.40
2017-10-17T16:41:13.818Z,66.40
2017-10-17T16:43:42.018Z,67.20
2017-10-17T16:46:10.302Z,67.90
2017-10-17T16:48:38.973Z,68.60
2017-10-17T16:51:07.339Z,69.60
2017-10-17T16:53:35.486Z,70.60
2017-10-17T16:56:04.744Z,72.50
2017-10-17T16:58:32.892Z,72.50
2017-10-17T17:01:01.067Z,73.10
2017-10-17T17:03:29.224Z,73.80
2017-10-17T17:05:57.401Z,73.70
2017-10-17T17:08:25.537Z,74.50
2017-10-17T17:10:54.576Z,76.30
2017-10-17T17:13:22.724Z,77.30
2017-10-17T17:15:50.899Z,77.10
2017-10-17T17:18:19.046Z,77.70
2017-10-17T17:20:47.217Z,78.20
2017-10-17T17:23:16.137Z,78.50
2017-10-17T17:25:44.300Z,78.60
2017-10-17T17:28:12.474Z,80.20
2017-10-17T17:30:40.637Z,80.10
2017-10-17T17:33:09.688Z,81.40
2017-10-17T17:35:37.849Z,81.40
2017-10-17T17:38:06.039Z,81.00
2017-10-17T17:40:34.185Z,80.90
2017-10-17T17:43:02.361Z,80.80
2017-10-17T17:45:30.512Z,80.80
2017-10-17T17:47:58.680Z,80.90
2017-10-17T17:50:26.841Z,81.00
2017-10-17T17:52:55.015Z,81.70
2017-10-17T17:55:23.175Z,82.00
2017-10-17T17:57:52.220Z,82.80
2017-10-17T18:00:20.395Z,82.80
2017-10-17T18:02:48.580Z,82.70
2017-10-17T18:05:16.726Z,82.70
2017-10-17T18:07:44.891Z,83.20
2017-10-17T18:10:13.057Z,83.50
2017-10-17T18:12:41.262Z,84.10
2017-10-17T18:15:09.444Z,84.40
2017-10-17T18:17:37.587Z,84.50
2017-10-17T18:20:05.750Z,84.90
2017-10-17T18:22:33.935Z,85.10
2017-10-17T18:25:02.706Z,85.10
2017-10-17T18:27:30.880Z,85.70
2017-10-17T18:29:59.052Z,85.80
2017-10-17T18:32:27.212Z,86.10
2017-10-17T18:34:56.139Z,87.20
2017-10-17T18:37:24.292Z,87.30
2017-10-17T18:39:52.456Z,87.30
2017-10-17T18:42:20.599Z,87.90
2017-10-17T18:44:48.764Z,88.50
2017-10-17T18:47:16.921Z,89.80
2017-10-17T18:49:45.062Z,88.90
2017-10-17T18:52:13.240Z,88.90
2017-10-17T18:54:41.388Z,88.90
2017-10-17T18:57:09.543Z,89.00
2017-10-17T18:59:38.473Z,89.30
2017-10-17T19:02:06.638Z,89.30
2017-10-17T19:04:34.797Z,89.40
2017-10-17T19:07:02.973Z,89.80
2017-10-17T19:09:31.336Z,89.80
2017-10-17T19:11:59.531Z,89.60
2017-10-17T19:14:27.706Z,89.70
2017-10-17T19:16:55.915Z,90.00
2017-10-17T19:19:24.066Z,90.10
2017-10-17T19:21:52.221Z,90.10
2017-10-17T19:24:20.416Z,90.30
2017-10-17T19:26:48.843Z,90.30
2017-10-17T19:29:17.476Z,90.30
2017-10-17T19:31:45.692Z,90.30
2017-10-17T19:34:14.669Z,90.30
2017-10-17T19:36:42.835Z,90.60
2017-10-17T19:39:11.761Z,90.30
2017-10-17T19:41:40.693Z,90.30
2017-10-17T19:44:08.868Z,90.30
2017-10-17T19:46:37.030Z,90.30
2017-10-17T19:49:05.629Z,90.30
2017-10-17T19:51:33.999Z,90.30
2017-10-17T19:54:02.169Z,90.20
2017-10-17T19:56:30.670Z,90.20
2017-10-17T19:58:58.850Z,90.20
2017-10-17T20:01:27.012Z,90.30
2017-10-17T20:03:55.186Z,90.40
2017-10-17T20:06:23.348Z,90.40
2017-10-17T20:08:51.509Z,90.50
2017-10-17T20:11:19.683Z,90.60
2017-10-17T20:13:47.839Z,90.60
2017-10-17T20:16:16.016Z,90.70
2017-10-17T20:18:44.201Z,90.70
2017-10-17T20:21:12.384Z,90.80
2017-10-17T20:23:40.658Z,90.90
2017-10-17T20:26:08.844Z,90.90
2017-10-17T20:28:37.005Z,90.70
2017-10-17T20:31:05.192Z,90.70
2017-10-17T20:33:34.176Z,90.90
2017-10-17T20:38:35.643Z,91.10
2017-10-17T20:41:03.819Z,91.20
2017-10-17T20:43:31.985Z,91.20
2017-10-17T20:46:00.150Z,91.30
2017-10-17T20:48:28.426Z,91.30
2017-10-17T20:50:56.579Z,91.20
2017-10-17T20:53:24.742Z,91.10
2017-10-17T20:55:52.886Z,91.20
2017-10-17T20:58:21.066Z,91.30
2017-10-17T21:00:49.978Z,91.40
2017-10-17T21:03:18.152Z,91.40
2017-10-17T21:05:46.607Z,91.40
2017-10-17T21:08:15.986Z,91.50
2017-10-17T21:10:44.239Z,91.40
2017-10-17T21:13:12.398Z,91.40
2017-10-17T21:15:40.551Z,91.30
2017-10-17T21:18:08.754Z,91.40
2017-10-17T21:20:36.905Z,91.60
2017-10-17T21:23:05.055Z,91.60
2017-10-17T21:25:33.995Z,91.60
2017-10-17T21:28:02.140Z,91.60
2017-10-17T21:30:30.706Z,91.70
2017-10-17T21:32:59.628Z,91.70
2017-10-17T21:35:28.202Z,91.70
2017-10-17T21:37:56.350Z,91.60
2017-10-17T21:40:25.292Z,91.50
2017-10-17T21:42:53.447Z,91.50
2017-10-17T21:45:21.621Z,91.50
2017-10-17T21:47:49.792Z,91.60
2017-10-17T21:50:17.958Z,91.50
2017-10-17T21:52:46.114Z,91.70
2017-10-17T21:55:14.267Z,91.80
2017-10-17T21:57:43.202Z,91.60
2017-10-17T22:00:11.366Z,91.60
2017-10-17T22:02:39.843Z,91.70
2017-10-17T22:05:07.995Z,91.80
2017-10-17T22:07:36.932Z,91.70
2017-10-17T22:10:05.097Z,91.70
2017-10-17T22:12:33.275Z,91.70
2017-10-17T22:15:01.417Z,91.90
2017-10-17T22:17:29.619Z,92.00
2017-10-17T22:19:57.762Z,92.10
2017-10-17T22:22:25.928Z,92.20
2017-10-17T22:24:54.076Z,92.10
2017-10-17T22:27:22.254Z,92.00
2017-10-17T22:29:51.165Z,92.10
2017-10-17T22:32:19.327Z,92.10
2017-10-17T22:34:48.618Z,91.90
2017-10-17T22:37:17.529Z,91.90
2017-10-17T22:39:45.704Z,91.90
2017-10-17T22:42:13.864Z,91.90
2017-10-17T22:44:42.910Z,91.80
2017-10-17T22:47:11.172Z,91.80
2017-10-17T22:49:39.354Z,91.80
2017-10-17T22:52:07.514Z,91.90
2017-10-17T22:54:36.415Z,91.90
2017-10-17T22:57:04.564Z,91.90
2017-10-17T22:59:32.723Z,91.80
2017-10-17T23:02:00.883Z,91.70
2017-10-17T23:04:29.810Z,91.50
2017-10-17T23:06:57.989Z,91.50
2017-10-17T23:09:26.512Z,91.70
2017-10-17T23:11:55.464Z,91.70
2017-10-17T23:14:23.713Z,91.60
2017-10-17T23:17:09.854Z,91.70
2017-10-17T23:19:55.851Z,91.70
2017-10-17T23:22:36.108Z,91.60
2017-10-17T23:25:04.322Z,91.60
2017-10-17T23:27:32.492Z,91.60
2017-10-17T23:30:00.636Z,91.50
2017-10-17T23:32:28.803Z,91.50
2017-10-17T23:34:56.984Z,91.70
2017-10-17T23:37:25.172Z,91.70
2017-10-17T23:39:54.130Z,91.60
2017-10-17T23:42:22.316Z,91.60
2017-10-17T23:44:50.470Z,91.70
2017-10-17T23:47:18.649Z,91.70
2017-10-17T23:49:46.812Z,91.80
2017-10-17T23:52:14.974Z,91.90
2017-10-17T23:54:43.139Z,91.90
2017-10-17T23:57:11.460Z,91.90
2017-10-17T23:59:40.382Z,91.80
